Time;durP1;ratioP1;P1;durP2;ratioP2;P2;SDS_P1;SDS_P2;PMS_P1;PMS_P2;Temp;Humidity;BMP_temperature;BMP_pressure;BME280_temperature;BME280_humidity;BME280_pressure;Samples;Min_cycle;Max_cycle;Signal;HPM_P1;HPM_P2
2024/01/01 00:02:06;;;;;;;;;;;7.40;82.30;;;;;;5105443;27;19969;-71
2024/01/01 00:04:39;;;;;;;;;;;7.40;82.20;;;;;;5107725;28;19924;-61
2024/01/01 00:07:13;;;;;;;;;;;7.50;82.30;;;;;;5082851;28;20310;-61
2024/01/01 00:09:45;;;;;;;;;;;7.50;82.30;;;;;;5086933;27;20412;-61
2024/01/01 00:12:18;;;;;;;;;;;7.40;82.30;;;;;;5088220;28;19924;-61
2024/01/01 00:14:52;;;;;;;;;;;7.40;82.40;;;;;;5086902;28;19967;-62
2024/01/01 00:17:26;;;;;;;;;;;7.50;82.20;;;;;;5087873;28;19970;-61
2024/01/01 00:20:00;;;;;;;;;;;7.50;82.20;;;;;;5087065;28;19955;-61
2024/01/01 00:22:34;;;;;;;;;;;7.50;82.20;;;;;;5086030;28;19932;-63
2024/01/01 00:25:00;;;;;;;;;;;7.50;82.20;;;;;;5085753;28;19924;-62
2024/01/01 00:27:34;;;;;;;;;;;7.50;82.20;;;;;;5087179;28;20015;-62
2024/01/01 00:30:08;;;;;;;;;;;7.50;82.20;;;;;;5104010;28;19930;-62
2024/01/01 00:32:43;;;;;;;;;;;7.50;82.20;;;;;;5107673;28;19989;-61
2024/01/01 00:35:16;;;;;;;;;;;7.50;82.30;;;;;;5108196;28;19924;-61
2024/01/01 00:37:50;;;;;;;;;;;7.50;82.30;;;;;;5108215;28;19924;-62
2024/01/01 00:40:23;;;;;;;;;;;7.50;82.20;;;;;;5107013;27;19965;-62
2024/01/01 00:42:56;;;;;;;;;;;7.50;82.30;;;;;;5090046;28;19928;-62
2024/01/01 00:45:30;;;;;;;;;;;7.60;82.10;;;;;;5107155;27;19971;-62
2024/01/01 00:48:04;;;;;;;;;;;7.50;82.10;;;;;;5085502;28;19923;-61
2024/01/01 00:50:37;;;;;;;;;;;7.50;82.10;;;;;;5107004;28;19969;-63
2024/01/01 00:56:46;;;;;;;;;;;7.50;82.00;;;;;;5099183;28;19926;-61
2024/01/01 00:59:20;;;;;;;;;;;7.50;82.10;;;;;;5107741;28;19985;-63
2024/01/01 01:01:52;;;;;;;;;;;7.50;82.20;;;;;;5097861;27;19923;-62
2024/01/01 01:04:27;;;;;;;;;;;7.60;82.20;;;;;;5098024;28;19924;-62
2024/01/01 01:07:01;;;;;;;;;;;7.60;82.10;;;;;;5104225;28;20356;-62
2024/01/01 01:09:35;;;;;;;;;;;7.60;82.10;;;;;;5093118;28;19928;-63
2024/01/01 01:12:07;;;;;;;;;;;7.60;82.10;;;;;;5085105;28;20390;-61
2024/01/01 01:14:41;;;;;;;;;;;7.60;82.20;;;;;;5098539;28;19946;-59
2024/01/01 01:17:13;;;;;;;;;;;7.60;82.20;;;;;;5088548;28;19928;-59
2024/01/01 01:19:48;;;;;;;;;;;7.60;82.20;;;;;;5084510;28;19964;-60
2024/01/01 01:22:21;;;;;;;;;;;7.60;82.30;;;;;;5087452;28;19928;-60
2024/01/01 01:24:48;;;;;;;;;;;7.60;82.20;;;;;;5086078;28;19940;-60
2024/01/01 01:27:21;;;;;;;;;;;7.60;82.20;;;;;;5084478;28;19935;-58
2024/01/01 01:29:55;;;;;;;;;;;7.70;82.10;;;;;;5070572;28;19934;-59
2024/01/01 01:32:28;;;;;;;;;;;7.60;82.10;;;;;;5090041;28;20310;-59
2024/01/01 01:34:56;;;;;;;;;;;7.60;82.20;;;;;;5103293;28;19928;-61
2024/01/01 01:37:29;;;;;;;;;;;7.70;82.10;;;;;;5088485;28;19924;-59
2024/01/01 01:40:03;;;;;;;;;;;7.70;82.10;;;;;;5095027;28;19924;-59
2024/01/01 01:42:37;;;;;;;;;;;7.60;82.00;;;;;;5095183;28;19928;-58
2024/01/01 01:45:10;;;;;;;;;;;7.60;82.10;;;;;;5106279;28;19928;-60
2024/01/01 01:47:43;;;;;;;;;;;7.70;82.10;;;;;;5106363;28;19935;-59
2024/01/01 01:50:17;;;;;;;;;;;7.70;82.20;;;;;;5086956;28;19939;-60
2024/01/01 01:52:51;;;;;;;;;;;7.60;82.30;;;;;;5087970;28;19924;-59
2024/01/01 01:55:24;;;;;;;;;;;7.70;82.60;;;;;;5111713;28;19927;-59
2024/01/01 01:57:57;;;;;;;;;;;7.60;82.70;;;;;;5090428;28;19931;-59
2024/01/01 02:00:30;;;;;;;;;;;7.60;82.70;;;;;;5111467;28;19924;-60
2024/01/01 02:03:03;;;;;;;;;;;7.60;82.80;;;;;;5110029;28;19930;-60
2024/01/01 02:05:38;;;;;;;;;;;7.60;82.80;;;;;;5112372;27;19928;-59
2024/01/01 02:08:12;;;;;;;;;;;7.60;82.90;;;;;;5112739;28;19931;-59
2024/01/01 02:10:45;;;;;;;;;;;7.60;82.90;;;;;;5110024;28;19930;-59
2024/01/01 02:13:22;;;;;;;;;;;7.60;83.00;;;;;;5111004;28;19924;-59
2024/01/01 02:16:02;;;;;;;;;;;7.60;82.90;;;;;;5100625;28;24132;-60
2024/01/01 02:18:36;;;;;;;;;;;7.60;83.00;;;;;;5092650;28;19925;-61
2024/01/01 02:21:04;;;;;;;;;;;7.60;82.90;;;;;;5091364;28;19924;-59
2024/01/01 02:23:38;;;;;;;;;;;7.60;82.90;;;;;;5091987;28;19932;-71
2024/01/01 02:26:15;;;;;;;;;;;7.60;82.90;;;;;;5093021;28;19928;-69
2024/01/01 02:28:49;;;;;;;;;;;7.50;82.90;;;;;;5079964;28;19932;-71
2024/01/01 02:31:22;;;;;;;;;;;7.60;83.00;;;;;;5072237;28;19936;-70
2024/01/01 02:33:56;;;;;;;;;;;7.50;82.90;;;;;;5092678;27;19932;-69
2024/01/01 02:36:29;;;;;;;;;;;7.50;82.90;;;;;;5075150;28;19963;-69
2024/01/01 02:39:05;;;;;;;;;;;7.50;82.70;;;;;;5090207;28;19977;-71
2024/01/01 02:41:38;;;;;;;;;;;7.60;82.70;;;;;;5091457;28;19931;-70
2024/01/01 02:44:11;;;;;;;;;;;7.60;82.70;;;;;;5106399;27;19985;-70
2024/01/01 02:46:44;;;;;;;;;;;7.60;82.90;;;;;;5090220;28;19924;-71
2024/01/01 02:49:17;;;;;;;;;;;7.60;83.00;;;;;;5092275;28;19928;-70
2024/01/01 02:51:50;;;;;;;;;;;7.50;83.20;;;;;;5090974;28;19939;-70
2024/01/01 02:54:24;;;;;;;;;;;7.50;83.50;;;;;;5106256;28;19946;-69
2024/01/01 02:56:58;;;;;;;;;;;7.40;83.70;;;;;;5091171;28;20015;-71
2024/01/01 02:59:33;;;;;;;;;;;7.40;83.90;;;;;;5092237;28;19934;-68
2024/01/01 03:02:07;;;;;;;;;;;7.40;84.10;;;;;;5107496;28;20014;-69
2024/01/01 03:04:41;;;;;;;;;;;7.40;84.20;;;;;;5108498;28;20393;-69
2024/01/01 03:07:14;;;;;;;;;;;7.40;84.50;;;;;;5109397;28;19923;-70
2024/01/01 03:09:49;;;;;;;;;;;7.40;84.60;;;;;;5089832;28;19943;-71
2024/01/01 03:12:23;;;;;;;;;;;7.30;84.70;;;;;;5108366;28;19952;-70
2024/01/01 03:14:56;;;;;;;;;;;7.30;84.90;;;;;;5108779;28;19935;-69
2024/01/01 03:17:29;;;;;;;;;;;7.30;85.10;;;;;;5110955;28;20366;-70
2024/01/01 03:19:55;;;;;;;;;;;7.30;85.10;;;;;;5081241;28;19953;-70
2024/01/01 03:22:29;;;;;;;;;;;7.30;85.10;;;;;;5084164;28;20379;-71
2024/01/01 03:25:03;;;;;;;;;;;7.30;85.10;;;;;;5087408;28;19924;-71
2024/01/01 03:27:37;;;;;;;;;;;7.30;85.20;;;;;;5083081;28;19928;-69
2024/01/01 03:30:11;;;;;;;;;;;7.30;85.20;;;;;;5084527;28;20450;-71
2024/01/01 03:32:46;;;;;;;;;;;7.30;85.20;;;;;;5106648;28;19932;-69
2024/01/01 03:35:12;;;;;;;;;;;7.40;85.10;;;;;;5088258;28;19928;-70
2024/01/01 03:37:46;;;;;;;;;;;7.40;85.10;;;;;;5087796;28;19932;-71
2024/01/01 03:40:20;;;;;;;;;;;7.30;85.00;;;;;;5086794;28;20393;-70
2024/01/01 03:42:54;;;;;;;;;;;7.30;85.00;;;;;;5088878;28;19973;-70
2024/01/01 03:45:28;;;;;;;;;;;7.30;84.90;;;;;;5088665;28;19928;-71
2024/01/01 03:48:01;;;;;;;;;;;7.30;84.80;;;;;;5103442;27;19928;-71
2024/01/01 03:50:35;;;;;;;;;;;7.30;84.70;;;;;;5109044;28;19924;-70
2024/01/01 03:53:08;;;;;;;;;;;7.40;84.60;;;;;;5105479;28;19946;-70
2024/01/01 03:55:42;;;;;;;;;;;7.30;84.40;;;;;;5105733;28;19993;-70
2024/01/01 03:58:16;;;;;;;;;;;7.30;84.20;;;;;;5106599;28;19977;-71
2024/01/01 04:00:49;;;;;;;;;;;7.30;84.10;;;;;;5106716;28;19928;-70
2024/01/01 04:03:29;;;;;;;;;;;7.40;83.90;;;;;;5085198;28;19923;-70
2024/01/01 04:06:02;;;;;;;;;;;7.40;83.80;;;;;;5081536;28;19967;-70
2024/01/01 04:08:35;;;;;;;;;;;7.40;83.80;;;;;;5105291;28;19928;-69
2024/01/01 04:11:09;;;;;;;;;;;7.40;83.70;;;;;;5111072;27;19928;-70
2024/01/01 04:13:42;;;;;;;;;;;7.40;83.50;;;;;;5108159;28;19924;-72
2024/01/01 04:16:15;;;;;;;;;;;7.40;83.50;;;;;;5109190;28;19924;-69
2024/01/01 04:18:48;;;;;;;;;;;7.40;83.40;;;;;;5108045;28;19928;-69
2024/01/01 04:21:21;;;;;;;;;;;7.40;83.30;;;;;;5108211;28;20382;-72
2024/01/01 04:23:57;;;;;;;;;;;7.40;83.30;;;;;;5105482;28;19934;-71
2024/01/01 04:26:32;;;;;;;;;;;7.40;83.00;;;;;;5108348;28;19923;-70
2024/01/01 04:29:06;;;;;;;;;;;7.40;83.00;;;;;;5100009;27;19969;-70
2024/01/01 04:31:39;;;;;;;;;;;7.40;83.10;;;;;;5097497;28;20299;-71
2024/01/01 04:34:12;;;;;;;;;;;7.40;83.00;;;;;;5108418;28;19924;-70
2024/01/01 04:36:45;;;;;;;;;;;7.40;83.00;;;;;;5108235;28;20286;-70
2024/01/01 04:39:18;;;;;;;;;;;7.40;83.00;;;;;;5108686;28;19924;-69
2024/01/01 04:41:52;;;;;;;;;;;7.40;83.00;;;;;;5108560;28;19927;-70
2024/01/01 04:44:25;;;;;;;;;;;7.40;83.00;;;;;;5108207;28;19923;-71
2024/01/01 04:47:00;;;;;;;;;;;7.40;83.10;;;;;;5106934;28;19927;-69
2024/01/01 04:49:33;;;;;;;;;;;7.40;83.00;;;;;;5109248;28;20290;-71
2024/01/01 04:52:06;;;;;;;;;;;7.40;83.10;;;;;;5107963;28;19931;-70
2024/01/01 04:54:39;;;;;;;;;;;7.40;83.00;;;;;;5108136;27;19924;-69
2024/01/01 04:57:13;;;;;;;;;;;7.40;83.10;;;;;;5108027;28;19950;-71
2024/01/01 04:59:47;;;;;;;;;;;7.40;83.00;;;;;;5108702;28;19928;-71
2024/01/01 05:02:20;;;;;;;;;;;7.50;83.00;;;;;;5108165;28;20011;-71
2024/01/01 05:04:53;;;;;;;;;;;7.50;82.90;;;;;;5106255;28;19927;-69
2024/01/01 05:07:26;;;;;;;;;;;7.50;82.90;;;;;;5107877;28;19982;-71
2024/01/01 05:09:59;;;;;;;;;;;7.50;82.90;;;;;;5107824;28;19934;-70
2024/01/01 05:12:33;;;;;;;;;;;7.50;82.90;;;;;;5108175;28;20389;-70
2024/01/01 05:15:07;;;;;;;;;;;7.50;82.80;;;;;;5105781;27;19928;-71
2024/01/01 05:17:41;;;;;;;;;;;7.50;82.80;;;;;;5106456;28;19927;-70
2024/01/01 05:20:14;;;;;;;;;;;7.50;82.80;;;;;;5093319;28;19928;-70
2024/01/01 05:22:47;;;;;;;;;;;7.50;82.80;;;;;;5097277;28;19934;-70
2024/01/01 05:25:20;;;;;;;;;;;7.40;82.50;;;;;;5105377;28;19932;-71
2024/01/01 05:27:54;;;;;;;;;;;7.50;82.60;;;;;;5109510;28;20371;-71
2024/01/01 05:30:21;;;;;;;;;;;7.50;82.50;;;;;;5109955;28;19928;-71
2024/01/01 05:32:54;;;;;;;;;;;7.50;82.50;;;;;;5109922;28;19931;-70
2024/01/01 05:35:27;;;;;;;;;;;7.40;82.40;;;;;;5111447;28;19930;-69
2024/01/01 05:38:00;;;;;;;;;;;7.50;82.60;;;;;;5111883;28;19924;-69
2024/01/01 05:40:33;;;;;;;;;;;7.50;82.50;;;;;;5110595;28;19938;-71
2024/01/01 05:43:07;;;;;;;;;;;7.50;82.60;;;;;;5110911;27;20368;-71
2024/01/01 05:45:41;;;;;;;;;;;7.50;82.60;;;;;;5110287;28;19981;-70
2024/01/01 05:48:15;;;;;;;;;;;7.40;82.60;;;;;;5110212;28;19934;-70
2024/01/01 05:50:48;;;;;;;;;;;7.50;82.50;;;;;;5110245;28;19930;-72
2024/01/01 05:53:21;;;;;;;;;;;7.50;82.30;;;;;;5110625;28;20375;-64
2024/01/01 05:55:54;;;;;;;;;;;7.40;82.20;;;;;;5108274;28;19930;-62
2024/01/01 05:58:28;;;;;;;;;;;7.40;82.00;;;;;;5110935;28;20034;-62
2024/01/01 06:01:01;;;;;;;;;;;7.50;82.20;;;;;;5108545;28;20294;-62
2024/01/01 06:03:34;;;;;;;;;;;7.40;82.10;;;;;;5110476;28;19931;-62
2024/01/01 06:06:08;;;;;;;;;;;7.40;82.20;;;;;;5103368;28;19924;-62
2024/01/01 06:08:42;;;;;;;;;;;7.40;82.20;;;;;;5099389;28;19935;-62
2024/01/01 06:11:15;;;;;;;;;;;7.40;82.30;;;;;;5111834;28;19992;-62
2024/01/01 06:13:49;;;;;;;;;;;7.40;82.40;;;;;;5108984;28;19986;-63
2024/01/01 06:16:16;;;;;;;;;;;7.40;82.50;;;;;;5108779;28;19928;-63
2024/01/01 06:18:49;;;;;;;;;;;7.40;82.50;;;;;;5108128;28;19931;-60
2024/01/01 06:21:22;;;;;;;;;;;7.40;82.60;;;;;;5110603;28;20458;-62
2024/01/01 06:23:55;;;;;;;;;;;7.30;82.50;;;;;;5107757;27;20858;-62
2024/01/01 06:26:28;;;;;;;;;;;7.30;82.50;;;;;;5110179;28;19924;-62
2024/01/01 06:29:02;;;;;;;;;;;7.30;82.60;;;;;;5089129;28;19950;-62
2024/01/01 06:31:36;;;;;;;;;;;7.30;82.70;;;;;;5081740;28;19955;-62
2024/01/01 06:34:09;;;;;;;;;;;7.30;82.60;;;;;;5088285;28;20402;-63
2024/01/01 06:36:42;;;;;;;;;;;7.30;82.50;;;;;;5088790;28;19928;-62
2024/01/01 06:39:15;;;;;;;;;;;7.30;82.50;;;;;;5088328;28;19935;-62
2024/01/01 06:41:49;;;;;;;;;;;7.30;82.60;;;;;;5089515;28;19984;-63
2024/01/01 06:44:25;;;;;;;;;;;7.30;82.50;;;;;;5088384;28;19973;-62
2024/01/01 06:46:58;;;;;;;;;;;7.30;82.60;;;;;;5089222;28;19935;-63
2024/01/01 06:49:31;;;;;;;;;;;7.30;82.60;;;;;;5087119;28;19975;-62
2024/01/01 06:52:06;;;;;;;;;;;7.40;82.60;;;;;;5090879;28;20267;-63
2024/01/01 06:54:39;;;;;;;;;;;7.40;82.40;;;;;;5108665;27;19928;-62
2024/01/01 06:57:12;;;;;;;;;;;7.40;82.40;;;;;;5108445;28;19928;-62
2024/01/01 06:59:46;;;;;;;;;;;7.30;82.50;;;;;;5105039;27;19927;-61
2024/01/01 07:02:20;;;;;;;;;;;7.40;82.50;;;;;;5109828;28;19977;-63
2024/01/01 07:04:53;;;;;;;;;;;7.40;82.30;;;;;;5104449;28;19988;-62
2024/01/01 07:07:26;;;;;;;;;;;7.40;82.20;;;;;;5108838;28;19928;-63
2024/01/01 07:09:59;;;;;;;;;;;7.40;82.20;;;;;;5108594;28;19924;-62
2024/01/01 07:12:32;;;;;;;;;;;7.40;82.20;;;;;;5108937;28;20004;-63
2024/01/01 07:15:07;;;;;;;;;;;7.40;82.30;;;;;;5106277;28;19928;-63
2024/01/01 07:17:41;;;;;;;;;;;7.40;82.30;;;;;;5107434;28;19931;-64
2024/01/01 07:20:14;;;;;;;;;;;7.40;82.40;;;;;;5091971;27;19931;-63
2024/01/01 07:23:02;;;;;;;;;;;7.40;82.50;;;;;;5091060;27;19932;-63
2024/01/01 07:25:36;;;;;;;;;;;7.40;82.60;;;;;;5090265;27;19928;-63
2024/01/01 07:28:09;;;;;;;;;;;7.30;82.60;;;;;;5091537;27;19928;-63
2024/01/01 07:30:43;;;;;;;;;;;7.40;82.60;;;;;;5091753;27;20011;-63
2024/01/01 07:33:17;;;;;;;;;;;7.40;82.70;;;;;;5090803;27;19967;-62
2024/01/01 07:35:50;;;;;;;;;;;7.40;82.70;;;;;;5089924;27;19924;-62
2024/01/01 07:38:23;;;;;;;;;;;7.40;82.80;;;;;;5091759;27;19924;-62
2024/01/01 07:40:56;;;;;;;;;;;7.40;82.70;;;;;;5088943;27;20291;-62
2024/01/01 07:43:29;;;;;;;;;;;7.40;82.80;;;;;;5091265;27;20398;-62
2024/01/01 07:46:03;;;;;;;;;;;7.40;82.70;;;;;;5110734;28;20400;-63
2024/01/01 07:48:51;;;;;;;;;;;7.40;82.80;;;;;;5109739;28;19939;-63
2024/01/01 07:51:31;;;;;;;;;;;7.40;82.70;;;;;;5108118;28;19927;-63
2024/01/01 07:54:04;;;;;;;;;;;7.40;82.80;;;;;;5106276;28;19931;-62
2024/01/01 07:56:41;;;;;;;;;;;7.40;82.70;;;;;;5106372;28;19934;-63
2024/01/01 07:59:14;;;;;;;;;;;7.40;82.70;;;;;;5108650;28;19924;-62
2024/01/01 08:01:45;;;;;;;;;;;7.40;82.80;;;;;;5106055;28;19927;-62
2024/01/01 08:04:19;;;;;;;;;;;7.40;82.70;;;;;;5106082;27;20379;-63
2024/01/01 08:06:52;;;;;;;;;;;7.40;82.70;;;;;;5107716;28;19928;-63
2024/01/01 08:09:25;;;;;;;;;;;7.40;82.80;;;;;;5106659;28;19930;-62
2024/01/01 08:11:58;;;;;;;;;;;7.40;82.80;;;;;;5107231;28;19930;-62
2024/01/01 08:14:31;;;;;;;;;;;7.40;82.70;;;;;;5108279;28;19970;-62
2024/01/01 08:17:05;;;;;;;;;;;7.40;82.70;;;;;;5107423;28;19924;-62
2024/01/01 08:19:39;;;;;;;;;;;7.40;82.70;;;;;;5105562;28;19938;-62
2024/01/01 08:22:12;;;;;;;;;;;7.40;82.70;;;;;;5106700;27;19935;-65
2024/01/01 08:24:45;;;;;;;;;;;7.40;82.50;;;;;;5105793;28;19932;-61
2024/01/01 08:27:18;;;;;;;;;;;7.40;82.40;;;;;;5092418;28;19975;-63
2024/01/01 08:29:51;;;;;;;;;;;7.40;82.40;;;;;;5104547;28;19934;-63
2024/01/01 08:32:25;;;;;;;;;;;7.40;82.40;;;;;;5099317;28;19950;-63
2024/01/01 08:34:59;;;;;;;;;;;7.40;82.40;;;;;;5097230;28;19931;-61
2024/01/01 08:37:32;;;;;;;;;;;7.40;82.50;;;;;;5105623;28;19930;-61
2024/01/01 08:40:06;;;;;;;;;;;7.50;82.50;;;;;;5102921;28;20353;-61
2024/01/01 08:42:39;;;;;;;;;;;7.40;82.50;;;;;;5105680;28;19932;-62
2024/01/01 08:45:12;;;;;;;;;;;7.40;82.50;;;;;;5106943;28;20415;-62
2024/01/01 08:47:46;;;;;;;;;;;7.50;82.50;;;;;;5104464;28;20040;-61
2024/01/01 08:50:19;;;;;;;;;;;7.50;82.40;;;;;;5107249;28;19927;-64
2024/01/01 08:52:52;;;;;;;;;;;7.50;82.30;;;;;;5107034;28;19928;-62
2024/01/01 08:55:25;;;;;;;;;;;7.50;82.20;;;;;;5090275;27;19927;-62
2024/01/01 08:57:58;;;;;;;;;;;7.60;82.00;;;;;;5089793;27;19932;-62
2024/01/01 09:00:32;;;;;;;;;;;7.50;81.90;;;;;;5090756;27;19942;-62
2024/01/01 09:03:00;;;;;;;;;;;7.60;81.90;;;;;;5089637;27;19995;-63
2024/01/01 09:05:33;;;;;;;;;;;7.60;82.00;;;;;;5088336;27;19947;-61
2024/01/01 09:08:06;;;;;;;;;;;7.60;81.80;;;;;;5090865;27;19935;-63
2024/01/01 09:10:39;;;;;;;;;;;7.60;81.90;;;;;;5085524;28;20397;-61
2024/01/01 09:13:12;;;;;;;;;;;7.70;81.80;;;;;;5085935;28;20026;-63
2024/01/01 09:15:45;;;;;;;;;;;7.70;81.70;;;;;;5086959;28;19928;-62
2024/01/01 09:18:19;;;;;;;;;;;7.60;81.70;;;;;;5083467;28;19932;-61
2024/01/01 09:20:53;;;;;;;;;;;7.70;81.70;;;;;;5084814;28;19928;-63
2024/01/01 09:23:27;;;;;;;;;;;7.60;81.70;;;;;;5087185;28;19947;-62
2024/01/01 09:26:00;;;;;;;;;;;7.70;81.70;;;;;;5087362;28;19924;-62
2024/01/01 09:28:27;;;;;;;;;;;7.70;81.60;;;;;;5086127;28;20329;-61
2024/01/01 09:31:00;;;;;;;;;;;7.70;81.60;;;;;;5084927;28;20318;-62
2024/01/01 09:33:34;;;;;;;;;;;7.70;81.40;;;;;;5085803;28;19925;-63
2024/01/01 09:36:08;;;;;;;;;;;7.70;81.50;;;;;;5086523;28;19932;-62
2024/01/01 09:38:42;;;;;;;;;;;7.80;81.20;;;;;;5086029;28;20008;-62
2024/01/01 09:41:24;;;;;;;;;;;7.80;81.10;;;;;;5106637;28;19934;-62
2024/01/01 09:43:57;;;;;;;;;;;7.90;81.10;;;;;;5107028;28;19930;-62
2024/01/01 09:46:33;;;;;;;;;;;7.90;80.80;;;;;;5105764;28;20461;-62
2024/01/01 09:49:07;;;;;;;;;;;7.90;80.80;;;;;;5105565;28;20004;-62
2024/01/01 09:51:41;;;;;;;;;;;7.90;80.50;;;;;;5085182;28;20808;-60
2024/01/01 09:54:14;;;;;;;;;;;7.90;80.50;;;;;;5102043;28;19924;-63
2024/01/01 09:56:47;;;;;;;;;;;7.90;80.40;;;;;;5106088;28;19927;-61
2024/01/01 09:59:32;;;;;;;;;;;7.90;80.40;;;;;;5107047;27;19931;-62
2024/01/01 10:02:06;;;;;;;;;;;7.90;80.30;;;;;;5106917;28;19928;-64
2024/01/01 10:04:48;;;;;;;;;;;7.90;80.40;;;;;;5106258;28;20031;-64
2024/01/01 10:07:27;;;;;;;;;;;7.90;80.40;;;;;;5105005;28;19932;-63
2024/01/01 10:10:01;;;;;;;;;;;8.00;80.20;;;;;;5106864;28;19931;-62
2024/01/01 10:12:34;;;;;;;;;;;8.10;80.00;;;;;;5105008;28;19928;-62
2024/01/01 10:15:07;;;;;;;;;;;8.10;80.10;;;;;;5109002;27;19924;-63
2024/01/01 10:17:40;;;;;;;;;;;8.10;80.00;;;;;;5107573;28;20359;-63
2024/01/01 10:20:14;;;;;;;;;;;8.10;79.90;;;;;;5106697;27;19924;-62
2024/01/01 10:22:48;;;;;;;;;;;8.20;79.90;;;;;;5110609;28;19955;-62
2024/01/01 10:25:21;;;;;;;;;;;8.20;79.90;;;;;;5108419;28;19977;-63
2024/01/01 10:27:56;;;;;;;;;;;8.10;79.90;;;;;;5108361;28;19931;-62
2024/01/01 10:30:29;;;;;;;;;;;8.10;80.00;;;;;;5109674;28;19923;-61
2024/01/01 10:33:03;;;;;;;;;;;8.10;80.20;;;;;;5109914;27;19923;-62
2024/01/01 10:35:37;;;;;;;;;;;8.00;80.30;;;;;;5095774;27;19931;-69
2024/01/01 10:38:12;;;;;;;;;;;8.00;80.70;;;;;;5092102;27;20286;-69
2024/01/01 10:40:47;;;;;;;;;;;8.00;81.10;;;;;;5092390;27;19932;-70
2024/01/01 10:43:23;;;;;;;;;;;8.00;81.20;;;;;;5109773;28;19935;-70
2024/01/01 10:46:04;;;;;;;;;;;8.00;81.30;;;;;;5109536;28;20309;-71
2024/01/01 10:48:37;;;;;;;;;;;7.90;81.60;;;;;;5109641;28;19973;-69
2024/01/01 10:51:31;;;;;;;;;;;7.90;81.60;;;;;;5109729;28;19950;-70
2024/01/01 10:54:25;;;;;;;;;;;7.90;81.80;;;;;;5089043;28;19928;-70
2024/01/01 10:57:08;;;;;;;;;;;8.00;81.90;;;;;;5105251;28;19989;-72
2024/01/01 10:59:47;;;;;;;;;;;7.90;81.90;;;;;;5089153;28;19924;-70
2024/01/01 11:02:20;;;;;;;;;;;8.00;82.00;;;;;;5089041;28;19934;-70
2024/01/01 11:05:05;;;;;;;;;;;8.00;82.10;;;;;;5088990;28;19932;-71
2024/01/01 11:07:58;;;;;;;;;;;8.00;82.20;;;;;;5109000;28;19924;-71
2024/01/01 11:10:36;;;;;;;;;;;8.00;82.30;;;;;;5109441;28;19947;-70
2024/01/01 11:13:12;;;;;;;;;;;8.00;82.50;;;;;;5109916;28;20011;-71
2024/01/01 11:15:46;;;;;;;;;;;8.00;82.60;;;;;;5109421;27;20026;-70
2024/01/01 11:18:19;;;;;;;;;;;7.90;82.70;;;;;;5108746;28;19928;-70
2024/01/01 11:20:53;;;;;;;;;;;8.00;82.70;;;;;;5108754;28;20014;-71
2024/01/01 11:23:46;;;;;;;;;;;7.90;82.90;;;;;;5110497;28;19970;-72
2024/01/01 11:26:34;;;;;;;;;;;7.90;83.10;;;;;;5108797;28;20012;-71
2024/01/01 11:29:25;;;;;;;;;;;7.90;83.20;;;;;;5106834;28;20477;-70
2024/01/01 11:32:01;;;;;;;;;;;7.90;83.30;;;;;;5107783;27;20042;-70
2024/01/01 11:34:37;;;;;;;;;;;7.90;83.40;;;;;;5092381;28;20298;-71
2024/01/01 11:37:10;;;;;;;;;;;8.00;83.40;;;;;;5109513;28;20028;-71
2024/01/01 11:39:44;;;;;;;;;;;8.00;83.30;;;;;;5109539;28;19928;-71
2024/01/01 11:42:35;;;;;;;;;;;8.00;83.20;;;;;;5107884;28;21675;-71
2024/01/01 11:45:16;;;;;;;;;;;8.10;83.10;;;;;;5110168;28;19928;-63
2024/01/01 11:47:50;;;;;;;;;;;8.10;83.00;;;;;;5109344;28;19931;-63
2024/01/01 11:50:17;;;;;;;;;;;8.10;82.90;;;;;;5108353;28;19987;-63
2024/01/01 11:52:59;;;;;;;;;;;8.10;82.90;;;;;;5109666;28;20105;-61
2024/01/01 11:55:33;;;;;;;;;;;8.10;82.90;;;;;;5107985;28;19932;-64
2024/01/01 11:58:07;;;;;;;;;;;8.10;82.90;;;;;;5091608;28;19939;-63
2024/01/01 12:00:42;;;;;;;;;;;8.10;83.10;;;;;;5109816;28;19932;-63
2024/01/01 12:03:15;;;;;;;;;;;8.00;83.30;;;;;;5109124;28;20320;-64
2024/01/01 12:05:48;;;;;;;;;;;8.00;83.30;;;;;;5106565;27;19924;-64
2024/01/01 12:08:21;;;;;;;;;;;8.00;83.20;;;;;;5108962;28;19923;-63
2024/01/01 12:10:59;;;;;;;;;;;8.00;83.20;;;;;;5107417;28;19924;-63
2024/01/01 12:13:33;;;;;;;;;;;8.10;83.20;;;;;;5108031;28;20334;-63
2024/01/01 12:16:16;;;;;;;;;;;8.10;83.10;;;;;;5106782;28;19924;-63
2024/01/01 12:18:54;;;;;;;;;;;8.10;82.80;;;;;;5108090;27;19930;-63
2024/01/01 12:21:37;;;;;;;;;;;8.10;82.80;;;;;;5108813;28;19931;-63
2024/01/01 12:24:13;;;;;;;;;;;8.10;82.80;;;;;;5107792;28;19932;-63
2024/01/01 12:26:50;;;;;;;;;;;8.20;82.40;;;;;;5108237;28;19927;-63
2024/01/01 12:29:23;;;;;;;;;;;8.20;82.50;;;;;;5088454;28;19927;-63
2024/01/01 12:31:56;;;;;;;;;;;8.20;82.20;;;;;;5109295;28;19928;-62
2024/01/01 12:34:29;;;;;;;;;;;8.20;82.30;;;;;;5107667;28;19979;-64
2024/01/01 12:37:02;;;;;;;;;;;8.20;82.00;;;;;;5107810;28;19934;-62
2024/01/01 12:43:12;;;;;;;;;;;8.20;81.80;;;;;;5105177;27;19927;-63
2024/01/01 12:45:45;;;;;;;;;;;8.20;82.00;;;;;;5093976;28;19928;-62
2024/01/01 12:48:18;;;;;;;;;;;8.20;81.90;;;;;;5090968;28;19951;-63
2024/01/01 12:50:51;;;;;;;;;;;8.20;81.80;;;;;;5092813;28;19936;-62
2024/01/01 12:53:24;;;;;;;;;;;8.20;81.70;;;;;;5088223;28;20011;-67
2024/01/01 12:55:57;;;;;;;;;;;8.20;81.60;;;;;;5085377;28;19928;-67
2024/01/01 12:58:31;;;;;;;;;;;8.30;81.70;;;;;;5099044;27;19932;-67
2024/01/01 13:01:05;;;;;;;;;;;8.30;81.60;;;;;;5108067;28;19924;-68
2024/01/01 13:03:38;;;;;;;;;;;8.30;81.60;;;;;;5107479;27;19924;-67
2024/01/01 13:06:42;;;;;;;;;;;8.30;81.70;;;;;;5107579;28;19931;-68
2024/01/01 13:09:18;;;;;;;;;;;8.20;81.60;;;;;;5107678;28;20060;-68
2024/01/01 13:11:51;;;;;;;;;;;8.20;81.90;;;;;;5096102;28;19934;-67
2024/01/01 13:14:25;;;;;;;;;;;8.20;82.10;;;;;;5089316;28;19928;-67
2024/01/01 13:17:03;;;;;;;;;;;8.30;82.20;;;;;;5087937;28;19924;-68
2024/01/01 13:19:38;;;;;;;;;;;8.20;82.40;;;;;;5086189;28;19935;-68
2024/01/01 13:22:13;;;;;;;;;;;8.20;82.70;;;;;;5086854;28;19924;-67
2024/01/01 13:24:46;;;;;;;;;;;8.20;83.00;;;;;;5081045;28;19928;-68
2024/01/01 13:27:19;;;;;;;;;;;8.20;83.30;;;;;;5104414;28;19930;-67
2024/01/01 13:29:53;;;;;;;;;;;8.20;83.50;;;;;;5106918;28;19939;-67
2024/01/01 13:32:27;;;;;;;;;;;8.20;83.60;;;;;;5107831;28;19935;-68
2024/01/01 13:35:01;;;;;;;;;;;8.20;83.80;;;;;;5104017;28;19924;-67
2024/01/01 13:37:34;;;;;;;;;;;8.20;84.00;;;;;;5082748;28;19924;-67
2024/01/01 13:40:07;;;;;;;;;;;8.20;84.10;;;;;;5087558;27;19931;-69
2024/01/01 13:42:41;;;;;;;;;;;8.20;84.20;;;;;;5086970;28;20004;-67
2024/01/01 13:45:15;;;;;;;;;;;8.20;84.10;;;;;;5086875;28;19938;-68
2024/01/01 13:47:49;;;;;;;;;;;8.20;84.30;;;;;;5088073;27;20040;-68
2024/01/01 13:50:22;;;;;;;;;;;8.10;84.30;;;;;;5109257;28;19933;-68
2024/01/01 13:52:55;;;;;;;;;;;8.10;84.40;;;;;;5107293;27;19924;-67
2024/01/01 13:55:28;;;;;;;;;;;8.20;84.60;;;;;;5107567;27;20018;-67
2024/01/01 13:58:02;;;;;;;;;;;8.10;84.60;;;;;;5102689;28;19971;-67
2024/01/01 14:00:37;;;;;;;;;;;8.10;84.50;;;;;;5089533;28;19937;-67
2024/01/01 14:03:14;;;;;;;;;;;8.10;84.40;;;;;;5091885;28;19924;-64
2024/01/01 14:05:47;;;;;;;;;;;8.10;84.40;;;;;;5087869;28;19932;-71
2024/01/01 14:08:20;;;;;;;;;;;8.00;84.50;;;;;;5091223;28;19938;-70
2024/01/01 14:10:53;;;;;;;;;;;8.00;84.50;;;;;;5089519;28;19973;-71
2024/01/01 14:13:28;;;;;;;;;;;8.00;84.40;;;;;;5090105;28;19975;-70
2024/01/01 14:15:56;;;;;;;;;;;8.00;84.40;;;;;;5086180;28;19970;-71
2024/01/01 14:18:29;;;;;;;;;;;8.00;84.30;;;;;;5090240;28;19947;-70
2024/01/01 14:21:02;;;;;;;;;;;8.00;84.20;;;;;;5090526;28;19928;-70
2024/01/01 14:23:35;;;;;;;;;;;8.00;84.10;;;;;;5088470;28;20328;-71
2024/01/01 14:26:08;;;;;;;;;;;8.00;84.10;;;;;;5086948;28;19924;-71
2024/01/01 14:28:41;;;;;;;;;;;8.00;84.10;;;;;;5088634;28;19934;-71
2024/01/01 14:31:15;;;;;;;;;;;8.00;84.20;;;;;;5106486;28;19938;-69
2024/01/01 14:33:49;;;;;;;;;;;8.00;84.40;;;;;;5108203;28;19959;-71
2024/01/01 14:36:22;;;;;;;;;;;8.00;84.60;;;;;;5111769;28;19978;-69
2024/01/01 14:38:55;;;;;;;;;;;8.00;84.90;;;;;;5109562;27;19955;-70
2024/01/01 14:41:31;;;;;;;;;;;7.90;85.10;;;;;;5097114;28;19930;-71
2024/01/01 14:44:04;;;;;;;;;;;7.90;85.30;;;;;;5093059;28;19950;-71
2024/01/01 14:46:38;;;;;;;;;;;7.90;85.40;;;;;;5092410;28;19987;-71
2024/01/01 14:49:12;;;;;;;;;;;7.90;85.50;;;;;;5110001;28;19934;-71
2024/01/01 14:51:45;;;;;;;;;;;7.80;85.50;;;;;;5110019;28;20340;-71
2024/01/01 14:54:18;;;;;;;;;;;7.90;85.50;;;;;;5109999;28;20634;-71
2024/01/01 14:56:52;;;;;;;;;;;7.80;85.40;;;;;;5109867;28;20018;-72
2024/01/01 14:59:25;;;;;;;;;;;7.90;85.30;;;;;;5107275;28;19951;-70
2024/01/01 15:01:59;;;;;;;;;;;7.90;85.20;;;;;;5108628;28;19985;-70
2024/01/01 15:04:33;;;;;;;;;;;7.90;85.20;;;;;;5108847;28;19955;-70
2024/01/01 15:07:06;;;;;;;;;;;7.90;85.10;;;;;;5109405;28;19967;-70
2024/01/01 15:09:39;;;;;;;;;;;7.90;85.10;;;;;;5111737;28;19978;-71
2024/01/01 15:12:12;;;;;;;;;;;7.90;85.00;;;;;;5109965;28;19935;-70
2024/01/01 15:14:45;;;;;;;;;;;7.80;85.10;;;;;;5109884;28;19928;-70
2024/01/01 15:17:19;;;;;;;;;;;7.80;85.10;;;;;;5107722;28;20001;-71
2024/01/01 15:19:53;;;;;;;;;;;7.80;85.10;;;;;;5109833;28;20012;-71